Latest Weather Observations for Mount Boyce

IDN60801

Issued at 7:35 am EST Tuesday 2 September 2014 (issued every 30 minutes, with the page automatically refreshed every 10 minutes)

About weather observations | Map of weather stations | Latest weather observations for NSW | Other Formats
Station Details ID: 063292 Name: MOUNT BOYCE AWS Lat: -33.62 Lon: 150.27 Height: 1080.0 m
Data from the previous 72 hours. | See also: Recent months at Mount Boyce
Date/Time
EST
Temp
°C
App
Temp
°C
Dew
Point
Rel
Hum
%
Delta-T
°C
Wind Press
QNH
hPa
Press
MSL
hPa
Rain
since 9 am
mm
Dir
 
Spd
km/h
Gust
km/h
Spd
kts
Gust
kts
02/07:30am 5.9 1.7 3.9 87 0.9 W 15 20 8 11 - - 0.0
02/07:00am 5.9 0.9 3.4 84 1.1 W 19 28 10 15 - - 0.0
02/06:50am 6.0 0.8 3.3 83 1.2 W 20 30 11 16 - - 0.0
02/06:30am 6.1 -0.7 3.3 82 1.3 W 28 41 15 22 - - 0.0
02/06:00am 6.3 1.1 3.8 84 1.1 W 20 30 11 16 - - 0.0
02/05:58am 6.3 1.1 3.8 84 1.1 W 20 33 11 18 - - 0.0
02/05:38am 6.3 0.0 3.8 84 1.1 W 26 35 14 19 - - 0.0
02/05:30am 6.3 0.4 3.8 84 1.1 W 24 35 13 19 - - 0.0
02/05:26am 6.3 0.4 3.8 84 1.1 W 24 35 13 19 - - 0.0
02/05:00am 6.3 1.1 3.6 83 1.2 W 20 30 11 16 - - 0.0
02/04:30am 6.4 0.8 3.7 83 1.2 WSW 22 33 12 18 - - 0.0
02/04:00am 6.4 0.8 3.6 82 1.3 W 22 35 12 19 - - 0.0
02/03:30am 6.7 1.5 3.3 79 1.5 WSW 20 35 11 19 - - 0.0
02/03:00am 7.7 2.1 3.4 74 2.0 WSW 22 35 12 19 - - 0.0
02/02:30am 8.7 2.7 3.1 68 2.6 W 24 35 13 19 - - 0.0
02/02:00am 9.3 3.2 2.6 63 3.0 W 24 39 13 21 - - 0.0
02/01:30am 9.8 3.6 2.2 59 3.4 W 24 41 13 22 - - 0.0
02/01:00am 11.4 5.1 1.4 50 4.5 WNW 24 39 13 21 - - 0.0
02/12:30am 11.1 4.5 1.9 53 4.2 WNW 26 41 14 22 - - 0.0
02/12:00am 11.0 4.8 2.1 54 4.0 WNW 24 44 13 24 - - 0.0
 
Date/Time
EST
Temp
°C
App
Temp
°C
Dew
Point
Rel
Hum
%
Delta-T
°C
Wind Press
QNH
hPa
Press
MSL
hPa
Rain
since 9 am
mm
Dir
 
Spd
km/h
Gust
km/h
Spd
kts
Gust
kts
01/11:30pm 10.7 4.9 2.3 56 3.8 WNW 22 37 12 20 - - 0.0
01/11:00pm 10.5 5.2 2.8 59 3.5 WNW 20 35 11 19 - - 0.0
01/10:30pm 10.1 5.0 2.9 61 3.3 W 19 33 10 18 - - 0.0
01/10:00pm 10.5 5.2 2.8 59 3.5 W 20 37 11 20 - - 0.0
01/09:30pm 10.4 5.7 3.2 61 3.3 W 17 28 9 15 - - 0.0
01/09:00pm 10.5 5.2 3.1 60 3.4 W 20 33 11 18 - - 0.0
01/08:30pm 10.7 5.1 3.3 60 3.4 WNW 22 37 12 20 - - 0.0
01/08:00pm 10.6 5.0 3.4 61 3.4 W 22 32 12 17 - - 0.0
01/07:30pm 10.5 4.5 3.1 60 3.4 W 24 39 13 21 - - 0.0
01/07:00pm 10.6 5.3 3.2 60 3.4 W 20 30 11 16 - - 0.0
01/06:30pm 10.6 5.5 3.2 60 3.4 W 19 35 10 19 - - 0.0
01/06:00pm 10.9 5.9 3.7 61 3.4 W 19 30 10 16 - - 0.0
01/05:30pm 11.5 7.0 4.0 60 3.6 W 17 32 9 17 - - 0.0
01/05:00pm 12.2 8.1 4.2 58 3.8 W 15 24 8 13 - - 0.0
01/04:30pm 13.4 9.0 4.6 55 4.3 W 17 24 9 13 - - 0.0
01/04:00pm 12.9 8.0 4.3 56 4.2 W 19 28 10 15 - - 0.0
01/03:30pm 12.9 7.9 3.6 53 4.4 W 19 24 10 13 - - 0.0
01/03:00pm 13.7 8.5 3.8 51 4.8 W 20 33 11 18 - - 0.0
01/02:30pm 14.3 8.7 3.2 47 5.3 W 22 41 12 22 - - 0.0
01/02:00pm 14.5 8.5 3.6 48 5.3 WSW 24 35 13 19 - - 0.0
01/01:30pm 14.7 9.5 3.8 48 5.3 WSW 20 33 11 18 - - 0.0
01/01:00pm 14.1 7.7 3.3 48 5.2 WSW 26 41 14 22 - - 0.0
01/12:45pm 13.9 7.2 3.4 49 5.0 W 28 46 15 25 - - 0.0
01/12:30pm 13.1 6.2 2.6 49 4.9 W 28 43 15 23 - - 0.0
01/12:00pm 12.8 6.7 2.9 51 4.7 W 24 39 13 21 - - 0.0
01/11:30am 13.1 7.1 3.5 52 4.6 WSW 24 37 13 20 - - 0.0
01/11:00am 11.3 5.6 3.1 57 3.8 W 22 32 12 17 - - 0.0
01/10:30am 11.9 6.3 3.4 56 4.0 W 22 35 12 19 - - 0.0
01/10:00am 10.7 4.4 3.5 61 3.4 W 26 37 14 20 - - 0.0
01/09:30am 10.0 3.8 4.2 67 2.7 W 26 35 14 19 - - 0.0
01/09:00am 9.1 4.2 4.1 71 2.3 WSW 19 28 10 15 - - 0.0
01/08:30am 8.3 3.1 3.6 72 2.2 W 20 30 11 16 - - 0.0
01/08:00am 7.9 2.7 3.4 73 2.1 W 20 32 11 17 - - 0.0
01/07:30am 7.0 1.7 3.1 76 1.8 W 20 28 11 15 - - 0.0
01/07:00am 6.7 1.6 3.0 77 1.7 W 19 26 10 14 - - 0.0
01/06:30am 6.8 1.7 3.2 78 1.6 W 19 24 10 13 - - 0.0
01/06:00am 6.9 2.6 3.2 77 1.7 W 15 20 8 11 - - 0.0
01/05:30am 6.8 1.1 3.1 77 1.7 W 22 28 12 15 - - 0.0
01/05:00am 6.4 1.0 2.7 77 1.6 W 20 28 11 15 - - 0.0
01/04:30am 6.4 1.2 2.7 77 1.6 W 19 26 10 14 - - 0.0
01/04:00am 6.4 1.5 2.3 75 1.8 W 17 20 9 11 - - 0.0
01/03:30am 6.3 1.8 2.2 75 1.8 W 15 20 8 11 - - 0.0
01/03:00am 6.2 2.0 1.9 74 1.9 W 13 17 7 9 - - 0.0
01/02:30am 6.5 2.7 2.0 73 2.0 WNW 11 15 6 8 - - 0.0
01/02:00am 6.4 2.6 1.9 73 2.0 WNW 11 13 6 7 - - 0.0
01/01:30am 5.7 2.3 1.6 75 1.8 W 9 11 5 6 - - 0.0
01/01:00am 5.8 2.7 1.3 73 1.9 WNW 7 9 4 5 - - 0.0
01/12:30am 6.3 3.2 1.6 72 2.0 WNW 7 9 4 5 - - 0.0
01/12:00am 6.8 3.8 1.7 70 2.2 WNW 7 11 4 6 - - 0.0
 
Date/Time
EST
Temp
°C
App
Temp
°C
Dew
Point
Rel
Hum
%
Delta-T
°C
Wind Press
QNH
hPa
Press
MSL
hPa
Rain
since 9 am
mm
Dir
 
Spd
km/h
Gust
km/h
Spd
kts
Gust
kts
31/11:30pm 7.4 4.0 2.1 69 2.3 W 9 11 5 6 - - 0.0
31/11:00pm 8.7 6.4 2.5 65 2.8 NNW 4 9 2 5 - - 0.0
31/10:30pm 7.9 6.3 2.2 67 2.5 CALM 0 2 0 1 - - 0.0
31/10:00pm 8.3 5.9 2.3 66 2.7 WNW 4 7 2 4 - - 0.0
31/09:30pm 8.5 5.7 2.3 65 2.8 NW 6 7 3 4 - - 0.0
31/09:00pm 9.0 7.5 2.8 65 2.8 CALM 0 6 0 3 - - 0.0
31/08:30pm 9.0 7.1 2.8 65 2.8 NNW 2 7 1 4 - - 0.0
31/08:00pm 9.1 6.4 2.9 65 2.8 NW 6 7 3 4 - - 0.0
31/07:30pm 9.3 6.7 4.1 70 2.4 NW 7 13 4 7 - - 0.0
31/07:00pm 9.3 7.4 6.7 84 1.3 ENE 6 7 3 4 - - 0.0
31/06:30pm 9.4 7.2 6.1 80 1.6 ENE 7 11 4 6 - - 0.0
31/06:00pm 10.0 7.3 5.6 74 2.1 E 9 13 5 7 - - 0.0
31/05:30pm 12.6 10.0 3.3 53 4.4 W 6 9 3 5 - - 0.0
31/05:00pm 13.6 10.0 3.1 49 5.0 W 11 17 6 9 - - 0.0
31/04:30pm 14.4 11.3 3.5 48 5.3 WNW 9 15 5 8 - - 0.0
31/04:00pm 14.2 10.5 2.5 45 5.5 W 11 20 6 11 - - 0.0
31/03:30pm 15.1 11.4 4.2 48 5.4 W 13 20 7 11 - - 0.0
31/03:00pm 14.1 12.4 3.8 50 5.0 WSW 2 9 1 5 - - 0.0
31/02:30pm 13.3 9.9 3.9 53 4.5 W 11 15 6 8 - - 0.0
31/02:00pm 12.6 9.8 3.3 53 4.4 SW 7 13 4 7 - - 0.0
31/01:30pm 14.1 10.5 2.7 46 5.4 W 11 19 6 10 - - 0.0
31/01:00pm 13.9 11.0 4.5 53 4.6 W 9 20 5 11 - - 0.0
31/12:30pm 12.8 8.9 3.2 52 4.5 W 13 19 7 10 - - 0.0
31/12:00pm 12.1 8.2 3.6 56 4.0 W 13 20 7 11 - - 0.0
31/11:30am 12.4 8.6 4.1 57 4.0 WNW 13 17 7 9 - - 0.0
31/11:00am 11.3 8.9 5.2 66 3.0 W 7 13 4 7 - - 0.0
31/10:30am 10.1 6.5 2.9 61 3.3 WSW 11 13 6 7 - - 0.0
31/10:00am 9.7 6.8 4.9 72 2.3 WSW 9 13 5 7 - - 0.0
31/09:30am 8.7 6.0 5.6 81 1.5 W 9 11 5 6 - - 0.0
31/09:00am 8.3 7.4 6.1 86 1.1 CALM 0 0 0 0 - - 0.2
31/08:30am 7.5 6.3 6.3 92 0.6 W 2 6 1 3 - - 0.2
31/08:00am 6.5 5.5 5.8 95 0.3 CALM 0 0 0 0 - - 0.2
31/07:30am 6.2 5.2 5.8 97 0.2 CALM 0 0 0 0 - - 0.2
31/07:00am 5.6 3.4 5.2 97 0.2 S 6 9 3 5 - - 0.2
31/06:30am 5.2 2.7 4.8 97 0.2 SE 7 11 4 6 - - 0.2
31/06:00am 5.1 3.2 4.7 97 0.2 SW 4 6 2 3 - - 0.2
31/05:30am 5.2 2.9 4.8 97 0.2 SSW 6 7 3 4 - - 0.2
31/05:00am 5.4 2.6 5.1 98 0.1 S 9 13 5 7 - - 0.0
31/04:31am 5.1 2.8 4.8 98 0.1 SSE 6 9 3 5 - - 0.0
31/04:30am 5.1 3.2 4.8 98 0.1 SSE 4 9 2 5 - - 0.0
31/04:00am 5.1 2.6 4.8 98 0.1 W 7 9 4 5 - - 0.0
31/03:30am 5.5 2.3 5.2 98 0.1 SW 11 13 6 7 - - 0.0
31/03:00am 5.6 2.8 5.3 98 0.1 SW 9 13 5 7 - - 0.0
31/02:57am 5.6 2.8 5.3 98 0.1 SW 9 13 5 7 - - 0.0
31/02:30am 5.3 2.4 4.9 97 0.2 W 9 13 5 7 - - 0.0
31/02:20am 5.4 2.2 5.0 97 0.2 WSW 11 13 6 7 - - 0.0
31/02:00am 5.5 2.6 4.9 96 0.3 SW 9 13 5 7 - - 0.0
31/01:30am 5.9 2.7 5.2 95 0.3 SSW 11 19 6 10 - - 0.0
31/01:00am 6.1 3.7 5.2 94 0.4 SW 7 13 4 7 - - 0.0
31/12:30am 6.3 3.2 5.4 94 0.4 SSW 11 17 6 9 - - 0.0
31/12:00am 6.5 3.5 5.8 95 0.3 S 11 17 6 9 - - 0.0
 
Date/Time
EST
Temp
°C
App
Temp
°C
Dew
Point
Rel
Hum
%
Delta-T
°C
Wind Press
QNH
hPa
Press
MSL
hPa
Rain
since 9 am
mm
Dir
 
Spd
km/h
Gust
km/h
Spd
kts
Gust
kts
30/11:30pm 6.4 3.7 5.8 96 0.3 SW 9 13 5 7 - - 0.0
30/11:00pm 6.5 3.5 5.8 95 0.3 SW 11 20 6 11 - - 0.0
30/10:30pm 6.6 3.6 6.0 96 0.3 SW 11 19 6 10 - - 0.0
30/10:29pm 6.5 3.5 5.9 96 0.3 SW 11 19 6 10 - - 0.0
30/10:00pm 6.6 3.6 6.0 96 0.3 SW 11 20 6 11 - - 0.0
30/09:30pm 6.9 3.6 6.3 96 0.3 SW 13 19 7 10 - - 0.0
30/09:00pm 7.1 4.2 6.5 96 0.3 SW 11 17 6 9 - - 0.0
30/08:30pm 7.1 4.6 6.5 96 0.3 SW 9 17 5 9 - - 0.0
30/08:00pm 7.2 4.7 6.6 96 0.3 SSW 9 17 5 9 - - 0.0
30/07:30pm 7.2 4.7 6.5 95 0.3 SW 9 17 5 9 - - 0.0
30/07:20pm 7.3 4.4 6.6 95 0.3 SW 11 19 6 10 - - 0.0
30/07:00pm 7.1 5.1 6.4 95 0.3 SSW 6 13 3 7 - - 0.0
30/06:30pm 7.2 4.2 6.1 93 0.5 S 11 17 6 9 - - 0.0
30/06:00pm 7.2 4.6 6.1 93 0.5 SW 9 15 5 8 - - 0.0
30/05:54pm 7.3 4.7 6.2 93 0.5 SSW 9 17 5 9 - - 0.0
30/05:30pm 7.3 4.3 6.1 92 0.6 SSW 11 17 6 9 - - 0.0
30/05:07pm 7.7 5.8 6.6 93 0.5 SSW 6 17 3 9 - - 0.0
30/05:00pm 7.7 5.8 6.5 92 0.6 SSW 6 15 3 8 - - 0.0
30/04:49pm 7.8 4.9 6.3 90 0.7 S 11 19 6 10 - - 0.0
30/04:30pm 8.0 5.4 6.3 89 0.8 SSW 9 17 5 9 - - 0.0
30/04:00pm 8.4 5.6 6.9 90 0.7 SSW 11 20 6 11 - - 0.0
30/03:30pm 8.5 6.1 7.1 91 0.7 SSW 9 17 5 9 - - 0.0
30/03:00pm 8.1 6.1 7.2 94 0.4 SSW 7 13 4 7 - - 0.0
30/02:53pm 8.1 5.0 7.2 94 0.4 S 13 30 7 16 - - 0.0
30/02:30pm 7.9 5.6 7.3 96 0.3 SW 9 15 5 8 - - 0.0
30/02:00pm 8.0 5.2 7.1 94 0.4 SW 11 19 6 10 - - 0.0
30/01:30pm 8.1 5.0 7.2 94 0.4 SW 13 20 7 11 - - 0.0
30/01:00pm 7.8 4.9 6.4 91 0.7 SW 11 19 6 10 - - 0.0
30/12:56pm 7.8 4.5 6.3 90 0.7 SSW 13 24 7 13 - - 0.0
30/12:30pm 8.1 4.8 6.2 88 0.9 SSW 13 22 7 12 - - 0.0
30/12:00pm 7.9 4.9 5.9 87 1.0 SW 11 20 6 11 - - 0.0
30/11:30am 8.4 5.0 5.9 84 1.2 SSW 13 20 7 11 - - 0.0
30/11:00am 8.4 4.7 6.4 87 1.0 S 15 28 8 15 - - 0.0
30/10:49am 8.3 5.0 6.6 89 0.8 SSE 13 28 7 15 - - 0.0
30/10:38am 8.0 3.9 6.3 89 0.8 S 17 33 9 18 - - 0.0
30/10:30am 8.4 5.5 6.7 89 0.8 S 11 20 6 11 - - 0.0
30/10:05am 7.3 3.9 6.1 92 0.6 SSE 13 26 7 14 - - 0.0
30/10:00am 7.2 3.4 6.0 92 0.6 S 15 26 8 14 - - 0.0
30/09:45am 7.1 3.8 6.2 94 0.4 S 13 24 7 13 - - 0.0
30/09:34am 7.0 3.3 6.1 94 0.4 S 15 28 8 15 - - 0.0
30/09:30am 6.7 2.9 6.0 95 0.3 S 15 28 8 15 - - 0.0
30/09:00am 6.2 2.3 5.3 94 0.4 S 15 24 8 13 - - 0.0
30/08:53am 6.4 2.1 5.4 93 0.5 S 17 30 9 16 - - 0.0
30/08:30am 5.6 1.2 4.9 95 0.3 S 17 30 9 16 - - 0.0
30/08:29am 5.6 1.2 4.9 95 0.3 S 17 30 9 16 - - 0.0
30/08:02am 5.2 1.1 4.6 96 0.3 S 15 28 8 15 - - 0.0
30/08:00am 5.1 1.4 4.5 96 0.3 SSW 13 28 7 15 - - 0.0
30/07:47am 4.9 1.6 4.3 96 0.3 SSW 11 20 6 11 - - 0.0

Other Formats:

Comma delimited format used in spreadsheet applications
http://www.bom.gov.au/fwo/IDN60801/IDN60801.94743.axf

JavaScript Object Notation format (JSON) in row-major order
http://www.bom.gov.au/fwo/IDN60801/IDN60801.94743.json